Flight Track Log - Related Links

Times and Time Zones

All times are in EDT time to prevent confusion due to time zone crossing. See the AAL80 flight status page for this flight to view local times or setup timezone preferences in your user account.

Time Position Orientation Groundspeed Altitude Reporting Facility
EDT Latitude Longitude Course Direction KTS MPH feet Rate Location/Type
Thu 10:15:15 PM 32.8660 -97.0264 299° West  Level FlightAware Approximate
Thu 10:15:48 PM 32.8781 -97.0519 185° South 220 253 1,500  Level FAA TRACON SMA TRACON (SMA)
Thu 10:16:28 PM 32.8436 -97.0556 196° South 182 209 2,500 1,725 Climbing FAA TRACON SMA TRACON (SMA)
Thu 10:17:08 PM 32.8028 -97.0692 216° Southwest 228 262 3,800 1,852 Climbing FAA TRACON SMA TRACON (SMA)
Thu 10:17:49 PM 32.7706 -97.0975 264° West 259 298 5,000 2,074 Climbing FAA TRACON SMA TRACON (SMA)
Thu 10:18:29 PM 32.7647 -97.1586 276° West 281 323 6,600 2,325 Climbing FAA TRACON SMA TRACON (SMA)
Thu 10:19:09 PM 32.7706 -97.2239 320° Northwest 308 354 8,100 2,250 Climbing FAA TRACON SMA TRACON (SMA)
Thu 10:19:49 PM 32.8094 -97.2625 348° North 319 367 9,600 2,100 Climbing FAA TRACON SMA TRACON (SMA)
Thu 10:20:29 PM 32.8678 -97.2769 19° North 332 382 10,900 1,650 Climbing FAA TRACON SMA TRACON (SMA)
Thu 10:21:09 PM 32.9308 -97.2508 33° Northeast 362 417 11,800 1,425 Climbing FAA TRACON SMA TRACON (SMA)
Thu 10:21:49 PM 32.9864 -97.2078 34° Northeast 387 445 12,800 1,829 Climbing FAA TRACON SMA TRACON (SMA)
Thu 10:22:31 PM 33.0519 -97.1547 34° Northeast 416 479 14,300 2,325 Climbing FAA TRACON SMA TRACON (SMA)
Thu 10:23:09 PM 33.1111 -97.1069 34° Northeast 426 490 15,900 2,462 Climbing FAA TRACON SMA TRACON (SMA)
Thu 10:23:49 PM 33.1775 -97.0525 34° Northeast 419 482 17,500 2,325 Climbing FAA TRACON SMA TRACON (SMA)
Thu 10:24:29 PM 33.2450 -96.9978 33° Northeast 424 488 19,000 2,100 Climbing FAA TRACON SMA TRACON (SMA)
Thu 10:25:09 PM 33.3064 -96.9494 35° Northeast 432 497 20,300 1,800 Climbing FAA TRACON SMA TRACON (SMA)
Thu 10:25:49 PM 33.3772 -96.8906 34° Northeast 449 517 21,400 1,747 Climbing FAA TRACON SMA TRACON (SMA)
Thu 10:26:28 PM 33.4503 -96.8314 29° Northeast 458 527 22,600 1,650 Climbing FAA TRACON SMA TRACON (SMA)
Thu 10:27:09 PM 33.5200 -96.7850 28° Northeast 470 541 23,600 1,556 Climbing FAA TRACON SMA TRACON (SMA)
Thu 10:27:49 PM 33.6008 -96.7342 28° Northeast 474 545 24,700 1,500 Climbing FAA TRACON SMA TRACON (SMA)
Thu 10:28:29 PM 33.6831 -96.6825 28° Northeast 482 555 25,600 1,425 Climbing FAA TRACON SMA TRACON (SMA)
Thu 10:29:09 PM 33.7575 -96.6356 29° Northeast 491 565 26,600 1,471 Climbing FAA TRACON SMA TRACON (SMA)
Thu 10:30:11 PM 33.8844 -96.5503 28° Northeast 486 559 28,100 1,525 Climbing Fort Worth Center
Thu 10:31:11 PM 34.0092 -96.4714 33° Northeast 497 572 29,700 1,500 Climbing Fort Worth Center
Thu 10:32:11 PM 34.1086 -96.3925 35° Northeast 492 566 31,100 1,250 Climbing Fort Worth Center
Thu 10:33:11 PM 34.2247 -96.2958 34° Northeast 487 560 32,200 950 Climbing Fort Worth Center
Thu 10:34:11 PM 34.3408 -96.2011 34° Northeast 492 566 33,000 400 Climbing Fort Worth Center
Thu 10:35:11 PM 34.4608 -96.1014 34° Northeast 503 579 33,000  Level Fort Worth Center
Thu 10:36:11 PM 34.5869 -95.9986 35° Northeast 503 579 33,000  Level Fort Worth Center
Thu 10:37:11 PM 34.7006 -95.9031 34° Northeast 503 579 33,000  Level Fort Worth Center
Thu 10:38:11 PM 34.8142 -95.8100 35° Northeast 498 573 33,000  Level Fort Worth Center
Thu 10:39:11 PM 34.9275 -95.7117 37° Northeast 493 567 33,000  Level Fort Worth Center
Thu 10:40:11 PM 35.0367 -95.6106 38° Northeast 493 567 33,000  Level Fort Worth Center
Thu 10:42:29 PM 35.2731 -95.3850 37° Northeast 495 570 33,000  Level Memphis Center
Thu 10:43:29 PM 35.3836 -95.2822 38° Northeast 495 570 33,000  Level Memphis Center
Thu 10:44:29 PM 35.4900 -95.1789 38° Northeast 495 570 33,000  Level Memphis Center
Thu 10:45:29 PM 35.5981 -95.0753 38° Northeast 495 570 33,000  Level Memphis Center
Thu 10:46:29 PM 35.7064 -94.9692 38° Northeast 490 564 33,000  Level Memphis Center
Thu 10:47:29 PM 35.8144 -94.8650 38° Northeast 490 564 33,000  Level Memphis Center
Thu 10:48:29 PM 35.9225 -94.7606 39° Northeast 490 564 33,000  Level Memphis Center
Thu 10:49:29 PM 36.0261 -94.6558 38° Northeast 485 558 33,000  Level Memphis Center
Thu 10:50:29 PM 36.1339 -94.5511 38° Northeast 485 558 33,000  Level Memphis Center
Thu 10:51:29 PM 36.2417 -94.4458 39° Northeast 485 558 33,000  Level Memphis Center
Thu 10:52:29 PM 36.3472 -94.3403 39° Northeast 485 558 33,000  Level Memphis Center
Thu 10:53:00 PM 36.4047 -94.2817 38° Northeast 504 580 33,000  Level Kansas City Center
Thu 10:54:00 PM 36.5108 -94.1778 39° Northeast 510 587 33,000  Level Kansas City Center
Thu 10:55:00 PM 36.6189 -94.0686 38° Northeast 498 573 33,000  Level Kansas City Center
Thu 10:56:00 PM 36.7250 -93.9644 38° Northeast 492 566 33,000  Level Kansas City Center
Thu 10:57:00 PM 36.8331 -93.8572 37° Northeast 492 566 33,000  Level Kansas City Center
Thu 10:58:00 PM 36.9533 -93.7444 38° Northeast 492 566 33,000  Level Kansas City Center
Thu 10:59:00 PM 37.0589 -93.6394 39° Northeast 492 566 33,000  Level Kansas City Center
Thu 11:00:00 PM 37.1644 -93.5339 39° Northeast 485 558 33,000  Level Kansas City Center
Thu 11:01:00 PM 37.2700 -93.4256 39° Northeast 485 558 33,000  Level Kansas City Center
Thu 11:02:00 PM 37.3753 -93.3194 36° Northeast 485 558 33,000  Level Kansas City Center
Thu 11:03:00 PM 37.4725 -93.2317 36° Northeast 485 558 33,000  Level Kansas City Center
Thu 11:04:00 PM 37.5819 -93.1303 36° Northeast 478 550 33,000  Level Kansas City Center
Thu 11:05:00 PM 37.6914 -93.0311 37° Northeast 478 550 33,000  Level Kansas City Center
Thu 11:06:00 PM 37.8006 -92.9264 36° Northeast 478 550 33,000  Level Kansas City Center
Thu 11:07:00 PM 37.9075 -92.8269 36° Northeast 478 550 33,000  Level Kansas City Center
Thu 11:08:00 PM 38.0167 -92.7269 36° Northeast 478 550 33,000  Level Kansas City Center
Thu 11:09:00 PM 38.1278 -92.6239 37° Northeast 478 550 33,000  Level Kansas City Center
Thu 11:10:00 PM 38.2367 -92.5206 38° Northeast 478 550 33,000  Level Kansas City Center
Thu 11:11:00 PM 38.3431 -92.4144 37° Northeast 478 550 33,000  Level Kansas City Center
Thu 11:12:00 PM 38.4600 -92.3025 36° Northeast 473 544 33,000  Level Kansas City Center
Thu 11:13:00 PM 38.5706 -92.1983 37° Northeast 473 544 33,000  Level Kansas City Center
Thu 11:14:00 PM 38.6811 -92.0911 37° Northeast 473 544 33,000  Level Kansas City Center
Thu 11:15:00 PM 38.7875 -91.9892 37° Northeast 478 550 33,000  Level Kansas City Center
Thu 11:16:00 PM 38.8956 -91.8839 37° Northeast 478 550 33,000  Level Kansas City Center
Thu 11:17:00 PM 39.0039 -91.7786 38° Northeast 478 550 33,000  Level Kansas City Center
Thu 11:18:00 PM 39.1078 -91.6756 37° Northeast 473 544 33,000  Level Kansas City Center
Thu 11:19:00 PM 39.2156 -91.5697 49° Northeast 473 544 33,000  Level Kansas City Center
Thu 11:20:00 PM 39.2961 -91.4511 54° Northeast 473 544 33,000  Level Kansas City Center
Thu 11:21:00 PM 39.3797 -91.2997 54° Northeast 472 543 33,000  Level Kansas City Center
Thu 11:22:00 PM 39.4592 -91.1592 55° Northeast 480 552 33,000  Level Kansas City Center
Thu 11:23:00 PM 39.5364 -91.0156 53° Northeast 480 552 33,000  Level Kansas City Center
Thu 11:24:00 PM 39.6078 -90.8908 53° Northeast 475 547 33,000  Level Kansas City Center
Thu 11:25:00 PM 39.6889 -90.7519 55° Northeast 475 547 33,000  Level Kansas City Center
Thu 11:26:00 PM 39.7675 -90.6075 54° Northeast 481 554 33,000  Level Kansas City Center
Thu 11:27:00 PM 39.8464 -90.4681 54° Northeast 481 554 33,000  Level Kansas City Center
Thu 11:28:00 PM 39.9228 -90.3283 54° Northeast 481 554 33,000  Level Kansas City Center
Thu 11:29:00 PM 40.0031 -90.1828 54° Northeast 481 554 33,000  Level Kansas City Center
Thu 11:31:08 PM 40.1772 -89.8636 55° Northeast 483 556 33,000  Level Chicago Center
Thu 11:32:08 PM 40.2550 -89.7200 55° Northeast 483 556 33,000  Level Chicago Center
Thu 11:33:08 PM 40.3325 -89.5761 55° Northeast 483 556 33,000  Level Chicago Center
Thu 11:34:07 PM 40.4097 -89.4292 56° Northeast 488 562 33,000  Level Chicago Center
Thu 11:35:08 PM 40.4847 -89.2817 68° East 488 562 33,000  Level Chicago Center
Thu 11:36:08 PM 40.5325 -89.1286 65° Northeast 488 562 33,000  Level Chicago Center
Thu 11:37:08 PM 40.5906 -88.9617 66° East 488 562 33,000  Level Chicago Center
Thu 11:38:08 PM 40.6439 -88.8000 68° East 488 562 33,000  Level Chicago Center
Thu 11:39:08 PM 40.6953 -88.6297 67° East 483 556 33,000  Level Chicago Center
Thu 11:40:08 PM 40.7483 -88.4647 66° East 483 556 33,000  Level Chicago Center
Thu 11:41:08 PM 40.8053 -88.2967 67° East 488 562 33,000  Level Chicago Center
Thu 11:42:08 PM 40.8578 -88.1311 68° East 488 562 33,000  Level Chicago Center
Thu 11:43:07 PM 40.9078 -87.9653 64° Northeast 488 562 33,000  Level Chicago Center
Thu 11:44:08 PM 40.9664 -87.8044 67° East 483 556 33,000  Level Chicago Center
Thu 11:45:08 PM 41.0242 -87.6242 65° Northeast 478 550 33,000  Level Chicago Center
Thu 11:46:08 PM 41.0800 -87.4631 66° East 478 550 33,000  Level Chicago Center
Thu 11:47:08 PM 41.1336 -87.3042 65° Northeast 478 550 33,000  Level Chicago Center
Thu 11:48:08 PM 41.1911 -87.1425 45° Northeast 478 550 33,000  Level Chicago Center
Thu 11:49:08 PM 41.2864 -87.0150 43° Northeast 478 550 33,000  Level Chicago Center
Thu 11:50:08 PM 41.3861 -86.8922 41° Northeast 478 550 33,000  Level Chicago Center
Thu 11:51:08 PM 41.4897 -86.7719 44° Northeast 483 556 33,000  Level Chicago Center
Thu 11:52:08 PM 41.5889 -86.6431 46° Northeast 488 562 33,000  Level Chicago Center
Thu 11:53:08 PM 41.6856 -86.5081 46° Northeast 488 562 33,000  Level Chicago Center
Thu 11:54:08 PM 41.7822 -86.3731 49° Northeast 488 562 33,000  Level Chicago Center
Thu 11:55:08 PM 41.8625 -86.2494 46° Northeast 493 567 33,000  Level Chicago Center
Thu 11:56:08 PM 41.9567 -86.1164 42° Northeast 487 560 33,000  Level Chicago Center
Thu 11:57:08 PM 42.0575 -85.9936 35° Northeast 487 560 33,000  Level Chicago Center
Thu 11:58:08 PM 42.1692 -85.8897 42° Northeast 487 560 33,000  Level Chicago Center
Thu 11:59:08 PM 42.2697 -85.7692 43° Northeast 487 560 33,000  Level Chicago Center
Fri 12:00:07 AM 42.3700 -85.6428 42° Northeast 481 554 33,000  Level Chicago Center
Fri 12:01:47 AM 42.5372 -85.4364 42° Northeast 475 547 33,000  Level Cleveland Center
Fri 12:02:47 AM 42.6383 -85.3114 42° Northeast 482 555 33,000  Level Cleveland Center
Fri 12:03:47 AM 42.7414 -85.1833 42° Northeast 482 555 33,000  Level Cleveland Center
Fri 12:04:47 AM 42.8422 -85.0578 42° Northeast 482 555 33,000  Level Cleveland Center
Fri 12:05:47 AM 42.9431 -84.9317 43° Northeast 488 562 33,000  Level Cleveland Center
Fri 12:06:47 AM 43.0458 -84.8025 43° Northeast 488 562 33,000  Level Cleveland Center
Fri 12:07:47 AM 43.1572 -84.6592 43° Northeast 488 562 33,000  Level Cleveland Center
Fri 12:08:47 AM 43.2597 -84.5289 41° Northeast 488 562 33,000  Level Cleveland Center
Fri 12:09:47 AM 43.3661 -84.4014 46° Northeast 488 562 33,000  Level Cleveland Center
Fri 12:11:25 AM 43.5167 -84.1833 43° Northeast 510 587 33,000  Level Toronto Center
Fri 12:12:25 AM 43.6333 -84.0333 44° Northeast 520 598 33,000  Level Toronto Center
Fri 12:13:25 AM 43.7333 -83.9000 49° Northeast 510 587 33,000  Level Toronto Center
Fri 12:14:25 AM 43.8167 -83.7667 35° Northeast 510 587 33,000  Level Toronto Center
Fri 12:15:30 AM 43.9469 -83.6389 44° Northeast 512 589 33,000  Level Minneapolis Center
Fri 12:16:30 AM 44.0497 -83.5025 44° Northeast 512 589 33,000  Level Minneapolis Center
Fri 12:17:30 AM 44.1522 -83.3631 43° Northeast 512 589 33,000  Level Minneapolis Center
Fri 12:18:30 AM 44.2589 -83.2250 46° Northeast 519 597 33,000  Level Minneapolis Center
Fri 12:19:25 AM 44.3667 -83.0667 49° Northeast 530 610 33,000  Level Toronto Center
Fri 12:20:25 AM 44.4500 -82.9333 39° Northeast 520 598 33,000  Level Toronto Center
Fri 12:21:25 AM 44.5667 -82.8000 47° Northeast 530 610 33,000  Level Toronto Center
Fri 12:22:25 AM 44.6667 -82.6500 43° Northeast 510 587 33,000  Level Toronto Center
Fri 12:23:25 AM 44.7667 -82.5167 47° Northeast 520 598 33,000  Level Toronto Center
Fri 12:24:25 AM 44.8667 -82.3667 43° Northeast 520 598 33,000  Level Toronto Center
Fri 12:25:25 AM 44.9667 -82.2333 50° Northeast 530 610 33,000  Level Toronto Center
Fri 12:26:25 AM 45.0667 -82.0667 39° Northeast 520 598 33,000 400 Level Toronto Center
Fri 12:27:25 AM 45.1833 -81.9333 47° Northeast 520 598 33,800 900 Climbing Toronto Center
Fri 12:28:25 AM 45.2833 -81.7833 43° Northeast 510 587 34,800 600 Climbing Toronto Center
Fri 12:29:25 AM 45.3833 -81.6500 43° Northeast 510 587 35,000 100 Climbing Toronto Center
Fri 12:30:25 AM 45.4833 -81.5167 49° Northeast 520 598 35,000  Level Toronto Center
Fri 12:31:25 AM 45.5833 -81.3500 46° Northeast 520 598 35,000  Level Toronto Center
Fri 12:32:25 AM 45.6833 -81.2000 43° Northeast 520 598 35,000  Level Toronto Center
Fri 12:33:25 AM 45.7833 -81.0667 49° Northeast 520 598 35,000  Level Toronto Center
Fri 12:34:25 AM 45.8833 -80.9000 43° Northeast 510 587 35,000  Level Toronto Center
Fri 12:35:25 AM 45.9833 -80.7667 42° Northeast 510 587 35,000  Level Toronto Center
Fri 12:36:25 AM 46.1000 -80.6167 51° Northeast 510 587 35,000  Level Toronto Center
Fri 12:37:25 AM 46.1833 -80.4667 49° Northeast 510 587 35,000  Level Toronto Center
Fri 12:38:25 AM 46.2833 -80.3000 43° Northeast 520 598 35,000  Level Toronto Center
Fri 12:39:25 AM 46.3833 -80.1667 46° Northeast 520 598 35,000  Level Toronto Center
Fri 12:40:25 AM 46.4833 -80.0167 46° Northeast 520 598 35,000  Level Toronto Center
Fri 12:41:25 AM 46.5833 -79.8667 49° Northeast 530 610 35,000  Level Toronto Center
Fri 12:42:25 AM 46.6833 -79.7000 42° Northeast 530 610 35,000  Level Toronto Center
Fri 12:43:25 AM 46.7833 -79.5667 47° Northeast 530 610 35,000  Level Toronto Center
Fri 12:44:25 AM 46.9000 -79.3833 51° Northeast 530 610 35,000  Level Toronto Center
Fri 12:45:25 AM 46.9833 -79.2333 44° Northeast 540 621 35,000  Level Toronto Center
Fri 12:46:25 AM 47.1000 -79.0667 46° Northeast 540 621 35,000  Level Toronto Center
Fri 12:47:25 AM 47.2000 -78.9167 48° Northeast 540 621 35,000  Level Toronto Center
Fri 12:48:25 AM 47.3000 -78.7500 45° Northeast 540 621 35,000  Level Toronto Center
Fri 12:49:25 AM 47.4000 -78.6000 45° Northeast 540 621 35,000  Level Toronto Center
Fri 12:50:25 AM 47.5000 -78.4500 51° Northeast 540 621 35,000  Level Toronto Center
Fri 12:51:25 AM 47.6000 -78.2667 48° Northeast 540 621 35,000  Level Toronto Center
Fri 12:52:25 AM 47.7000 -78.1000 45° Northeast 540 621 35,000  Level Toronto Center
Fri 12:53:25 AM 47.8000 -77.9500 51° Northeast 540 621 35,000  Level Toronto Center
Fri 12:54:25 AM 47.9000 -77.7667 46° Northeast 540 621 35,000  Level Toronto Center
Fri 12:55:25 AM 48.0167 -77.5833 45° Northeast 540 621 35,000  Level Toronto Center
Fri 12:56:25 AM 48.1167 -77.4333 50° Northeast 550 633 35,000  Level Toronto Center
Fri 12:57:25 AM 48.2000 -77.2833 51° Northeast 550 633 35,000  Level Toronto Center
Fri 12:58:25 AM 48.3000 -77.1000 51° Northeast 540 621 35,000  Level Toronto Center
Fri 12:59:25 AM 48.4000 -76.9167 46° Northeast 550 633 35,000  Level Toronto Center
Fri 01:00:25 AM 48.5167 -76.7333 50° Northeast 550 633 35,000  Level Toronto Center
Fri 01:01:25 AM 48.6000 -76.5833 43° Northeast 550 633 35,000  Level Toronto Center
Fri 01:02:28 AM 48.7167 -76.4167 45° Northeast 540 621 35,000  Level Montreal Center
Fri 01:03:28 AM 48.8167 -76.2667 53° Northeast 540 621 35,000  Level Montreal Center
Fri 01:04:28 AM 48.9167 -76.0667 45° Northeast 540 621 35,000  Level Montreal Center
Fri 01:05:28 AM 49.0167 -75.9167 50° Northeast 540 621 35,000  Level Montreal Center
Fri 01:06:28 AM 49.1167 -75.7333 55° Northeast 540 621 35,000  Level Montreal Center
Fri 01:07:28 AM 49.2000 -75.5500 44° Northeast 540 621 35,000  Level Montreal Center
Fri 01:08:28 AM 49.3000 -75.4000 55° Northeast 540 621 35,000  Level Montreal Center
Fri 01:09:28 AM 49.4000 -75.1833 44° Northeast 540 621 35,000  Level Montreal Center
Fri 01:10:28 AM 49.5000 -75.0333 50° Northeast 540 621 35,000  Level Montreal Center
Fri 01:11:28 AM 49.6000 -74.8500 50° Northeast 540 621 35,000  Level Montreal Center
Fri 01:12:28 AM 49.7000 -74.6667 50° Northeast 540 621 35,000  Level Montreal Center
Fri 01:13:28 AM 49.8000 -74.4833 55° Northeast 540 621 35,000  Level Montreal Center
Fri 01:14:28 AM 49.8833 -74.3000 54° Northeast 540 621 35,000  Level Montreal Center
Fri 01:16:35 AM 50.0667 -73.9000 54° Northeast 540 621 35,000  Level Montreal Center
Fri 01:17:35 AM 50.1667 -73.6833 55° Northeast 540 621 35,000  Level Montreal Center
Fri 01:18:35 AM 50.2500 -73.5000 57° Northeast 540 621 35,000  Level Montreal Center
Fri 01:19:35 AM 50.3333 -73.3000 49° Northeast 540 621 35,000  Level Montreal Center
Fri 01:20:35 AM 50.4333 -73.1167 62° Northeast 540 621 35,000  Level Montreal Center
Fri 01:21:35 AM 50.5000 -72.9167 49° Northeast 540 621 35,000  Level Montreal Center
Fri 01:22:35 AM 50.6000 -72.7333 57° Northeast 540 621 35,000  Level Montreal Center
Fri 01:23:35 AM 50.6833 -72.5333 54° Northeast 540 621 35,000  Level Montreal Center
Fri 01:24:35 AM 50.7667 -72.3500 57° Northeast 540 621 35,000  Level Montreal Center
Fri 01:25:35 AM 50.8500 -72.1500 52° Northeast 540 621 35,000  Level Montreal Center
Fri 01:26:35 AM 50.9500 -71.9500 60° Northeast 530 610 35,000  Level Montreal Center
Fri 01:27:35 AM 51.0167 -71.7667 56° Northeast 530 610 35,000  Level Montreal Center
Fri 01:28:35 AM 51.1000 -71.5667 51° Northeast 530 610 35,000  Level Montreal Center
Fri 01:29:35 AM 51.2000 -71.3667 62° Northeast 530 610 35,000  Level Montreal Center
Fri 01:30:35 AM 51.2667 -71.1667 49° Northeast 530 610 35,000  Level Montreal Center
Fri 01:31:35 AM 51.3667 -70.9833 62° Northeast 530 610 35,000  Level Montreal Center
Fri 01:32:35 AM 51.4333 -70.7833 51° Northeast 530 610 35,000  Level Montreal Center
Fri 01:33:35 AM 51.5333 -70.5833 62° Northeast 520 598 35,000  Level Montreal Center
Fri 01:34:35 AM 51.6000 -70.3833 56° Northeast 520 598 35,000  Level Montreal Center
Fri 01:35:35 AM 51.6833 -70.1833 62° Northeast 510 587 35,000  Level Montreal Center
Fri 01:36:35 AM 51.7500 -69.9833 49° Northeast 510 587 35,000  Level Montreal Center
Fri 01:37:35 AM 51.8500 -69.8000 62° Northeast 520 598 35,000  Level Montreal Center
Fri 01:38:35 AM 51.9167 -69.6000 56° Northeast 510 587 35,000  Level Montreal Center
Fri 01:39:35 AM 52.0000 -69.4000 59° Northeast 510 587 35,000  Level Montreal Center
Fri 01:40:35 AM 52.0667 -69.2167 61° Northeast 510 587 35,000  Level Montreal Center
Fri 01:41:35 AM 52.1333 -69.0167 56° Northeast 510 587 35,000  Level Montreal Center
Fri 01:42:35 AM 52.2167 -68.8167 63° Northeast 510 587 35,000  Level Montreal Center
Fri 01:43:35 AM 52.2833 -68.6000 61° Northeast 500 575 35,000  Level Montreal Center
Fri 01:44:35 AM 52.3500 -68.4000 56° Northeast 500 575 35,000  Level Montreal Center
Fri 01:45:35 AM 52.4333 -68.2000 59° Northeast 510 587 35,000  Level Montreal Center
Fri 01:46:35 AM 52.5000 -68.0167 61° Northeast 500 575 35,000  Level Montreal Center
Fri 01:47:35 AM 52.5667 -67.8167 59° Northeast 500 575 35,000  Level Montreal Center
Fri 01:48:35 AM 52.6333 -67.6333 58° Northeast 490 564 35,000  Level Montreal Center
Fri 01:49:35 AM 52.7167 -67.4167 67° East 500 575 35,000  Level Montreal Center
Fri 01:50:35 AM 52.7667 -67.2167 63° Northeast 490 564 35,000  Level Montreal Center
Fri 01:51:35 AM 52.8333 -67.0000 59° Northeast 490 564 35,000  Level Montreal Center
Fri 01:52:35 AM 52.9000 -66.8167 63° Northeast 480 552 35,000  Level Montreal Center
Fri 01:53:35 AM 52.9667 -66.6000 63° Northeast 490 564 35,000  Level Montreal Center
Fri 01:54:35 AM 53.0167 -66.4333 63° Northeast 490 564 35,000  Level Montreal Center
Fri 01:55:35 AM 53.0833 -66.2167 63° Northeast 500 575 35,000  Level Montreal Center
Fri 01:56:35 AM 53.1500 -66.0000 53° Northeast 490 564 35,000  Level Montreal Center
Fri 01:57:35 AM 53.2333 -65.8167 76° East 500 575 35,000  Level Montreal Center
Fri 01:58:35 AM 53.2667 -65.5833 61° Northeast 500 575 35,000  Level Montreal Center
Fri 01:59:35 AM 53.3333 -65.3833 53° Northeast 490 564 35,000  Level Montreal Center
Fri 02:00:35 AM 53.4167 -65.2000 69° East 490 564 35,000  Level Montreal Center
Fri 02:01:35 AM 53.4667 -64.9833 65° Northeast 490 564 35,000  Level Montreal Center
Fri 02:02:35 AM 53.5167 -64.8000 63° Northeast 480 552 35,000  Level Montreal Center
Fri 02:03:35 AM 53.5833 -64.5833 58° Northeast 480 552 35,000  Level Montreal Center
Fri 02:04:35 AM 53.6500 -64.4000 69° East 490 564 35,000  Level Montreal Center
Fri 02:05:35 AM 53.7000 -64.1833 62° Northeast 480 552 35,000  Level Montreal Center
Fri 02:06:35 AM 53.7667 -63.9667 67° East 480 552 35,000  Level Montreal Center
Fri 02:07:35 AM 53.8167 -63.7667 62° Northeast 490 564 35,000  Level Montreal Center
Fri 02:08:35 AM 53.8833 -63.5500 60° Northeast 490 564 35,000  Level Montreal Center
Fri 02:09:35 AM 53.9500 -63.3500 68° East 490 564 35,000  Level Montreal Center
Fri 02:10:35 AM 54.0000 -63.1333 58° Northeast 490 564 35,000  Level Montreal Center
Fri 02:11:35 AM 54.0667 -62.9500 70° East 480 552 35,000  Level Montreal Center
Fri 02:12:35 AM 54.1167 -62.7167 68° East 480 552 35,000  Level Montreal Center
Fri 02:13:35 AM 54.1667 -62.5000 60° Northeast 480 552 35,000  Level Montreal Center
Fri 02:14:35 AM 54.2333 -62.3000 68° East 480 552 35,000  Level Montreal Center
Fri 02:15:35 AM 54.2833 -62.0833 67° East 480 552 35,000  Level Montreal Center
Fri 02:16:35 AM 54.3333 -61.8833 62° Northeast 480 552 35,000  Level Montreal Center
Fri 02:17:35 AM 54.4000 -61.6667 67° East 480 552 35,000  Level Montreal Center
Fri 02:18:35 AM 54.4500 -61.4667 67° East 470 541 35,000  Level Montreal Center
Fri 02:19:35 AM 54.5000 -61.2667 68° East 470 541 35,000  Level Montreal Center
Fri 02:20:35 AM 54.5500 -61.0500 67° East 470 541 35,000  Level Montreal Center
Fri 02:21:35 AM 54.6000 -60.8500 60° Northeast 480 552 35,000  Level Montreal Center
Fri 02:22:35 AM 54.6667 -60.6500 75° East 470 541 35,000  Level Montreal Center
Fri 02:23:35 AM 54.7000 -60.4333 60° Northeast 470 541 35,000  Level Montreal Center
Fri 02:24:35 AM 54.7667 -60.2333 62° Northeast 470 541 35,000  Level Montreal Center
Fri 02:25:35 AM 54.8333 -60.0167 75° East 470 541 35,000  Level Montreal Center
Fri 02:26:35 AM 54.8667 -59.8000 66° East 470 541 35,000  Level Montreal Center
Fri 02:27:35 AM 54.9167 -59.6000 66° East 470 541 35,000  Level Montreal Center
Fri 02:28:35 AM 54.9667 -59.4000 69° East 470 541 35,000  Level Montreal Center
Fri 02:29:35 AM 55.0167 -59.1667 66° East 470 541 35,000  Level Montreal Center
Fri 02:30:35 AM 55.0667 -58.9667 69° East 470 541 35,000  Level Montreal Center
Fri 02:31:35 AM 55.1167 -58.7333 71° East 470 541 35,000  Level Montreal Center
Fri 02:32:35 AM 55.1500 -58.5667 57° Northeast 470 541 35,000  Level Montreal Center
Fri 02:33:31 AM 55.2167 -58.3833 68° East 460 529 35,000  Level Gander Center
Fri 02:34:31 AM 55.2667 -58.1667 74° East 460 529 35,000  Level Gander Center
Fri 02:35:31 AM 55.3000 -57.9667 68° East 460 529 35,000  Level Gander Center
Fri 02:36:31 AM 55.3500 -57.7500 66° East 460 529 35,000  Level Gander Center
Fri 02:37:31 AM 55.4000 -57.5500 75° East 460 529 35,000  Level Gander Center
Fri 02:38:31 AM 55.4333 -57.3333 68° East 460 529 35,000  Level Gander Center
Fri 02:39:31 AM 55.4833 -57.1167 69° East 470 541 35,000  Level Gander Center
Fri 02:40:31 AM 55.5333 -56.8833 64° Northeast 470 541 35,000  Level Gander Center
Fri 02:41:31 AM 55.5833 -56.7000 65° Northeast 470 541 35,000  Level Gander Center
Fri 02:42:31 AM 55.6500 -56.4500 72° East 460 529 35,000  Level Gander Center
Fri 02:43:31 AM 55.6833 -56.2667 66° East 460 529 35,000  Level Gander Center
Fri 02:44:31 AM 55.7333 -56.0667 68° East 460 529 35,000  Level Gander Center
Fri 02:45:31 AM 55.7833 -55.8500 68° East 470 541 35,000  Level Gander Center
Fri 02:46:31 AM 55.8333 -55.6333 68° East 470 541 35,000  Level Gander Center
Fri 02:47:31 AM 55.8833 -55.4167 66° East 470 541 35,000  Level Gander Center
Fri 02:48:31 AM 55.9333 -55.2167 73° East 470 541 35,000  Level Gander Center
Fri 02:56:15 AM 56.3934 -53.5346 74° East  Level FlightAware Approximate
Fri 02:57:15 AM 56.4512 -53.3142 75° East  Level FlightAware Approximate
Fri 02:58:15 AM 56.5086 -53.0931 75° East  Level FlightAware Approximate
Fri 02:59:15 AM 56.5657 -52.8713 75° East  Level FlightAware Approximate
Fri 03:00:15 AM 56.6223 -52.6488 75° East  Level FlightAware Approximate
Fri 03:01:15 AM 56.6785 -52.4257 76° East  Level FlightAware Approximate
Fri 03:02:15 AM 56.7343 -52.2020 76° East  Level FlightAware Approximate
Fri 03:03:15 AM 56.7898 -51.9775 76° East  Level FlightAware Approximate
Fri 03:04:15 AM 56.8448 -51.7524 76° East  Level FlightAware Approximate
Fri 03:05:15 AM 56.8994 -51.5267 76° East  Level FlightAware Approximate
Fri 03:06:15 AM 56.9536 -51.3002 77° East  Level FlightAware Approximate
Fri 03:07:15 AM 57.0074 -51.0732 77° East  Level FlightAware Approximate
Fri 03:08:15 AM 57.0601 -50.8485 77° East  Level FlightAware Approximate
Fri 03:09:15 AM 57.1123 -50.6232 77° East  Level FlightAware Approximate
Fri 03:10:15 AM 57.1642 -50.3973 78° East  Level FlightAware Approximate
Fri 03:11:15 AM 57.2057 -50.1639 78° East  Level FlightAware Approximate
Fri 03:12:15 AM 57.2467 -49.9300 78° East  Level FlightAware Approximate
Fri 03:13:15 AM 57.2873 -49.6956 78° East  Level FlightAware Approximate
Fri 03:14:15 AM 57.3274 -49.4607 79° East  Level FlightAware Approximate
Fri 03:15:15 AM 57.3671 -49.2252 79° East  Level FlightAware Approximate
Fri 03:16:15 AM 57.4063 -48.9893 79° East  Level FlightAware Approximate
Fri 03:17:15 AM 57.4452 -48.7528 79° East  Level FlightAware Approximate
Fri 03:18:15 AM 57.4836 -48.5158 79° East  Level FlightAware Approximate
Fri 03:19:15 AM 57.5215 -48.2784 80° East  Level FlightAware Approximate
Fri 03:20:15 AM 57.5590 -48.0404 80° East  Level FlightAware Approximate
Fri 03:21:15 AM 57.5960 -47.8020 80° East  Level FlightAware Approximate
Fri 03:22:15 AM 57.6326 -47.5631 80° East  Level FlightAware Approximate
Fri 03:23:15 AM 57.6688 -47.3237 81° East  Level FlightAware Approximate
Fri 03:24:15 AM 57.7044 -47.0838 81° East  Level FlightAware Approximate
Fri 03:25:15 AM 57.7397 -46.8434 81° East  Level FlightAware Approximate
Fri 03:26:15 AM 57.7744 -46.6026 81° East  Level FlightAware Approximate
Fri 03:27:15 AM 57.8088 -46.3614 82° East  Level FlightAware Approximate
Fri 03:28:15 AM 57.8426 -46.1196 82° East  Level FlightAware Approximate
Fri 03:29:15 AM 57.8760 -45.8774 82° East  Level FlightAware Approximate
Fri 03:30:15 AM 57.9090 -45.6348 82° East  Level FlightAware Approximate
Fri 03:31:15 AM 57.9414 -45.3918 83° East  Level FlightAware Approximate
Fri 03:32:15 AM 57.9734 -45.1482 83° East  Level FlightAware Approximate
Fri 03:33:15 AM 58.0050 -44.9043 83° East  Level FlightAware Approximate
Fri 03:34:15 AM 58.0360 -44.6599 83° East  Level FlightAware Approximate
Fri 03:35:15 AM 58.0667 -44.4151 83° East  Level FlightAware Approximate
Fri 03:36:15 AM 58.0968 -44.1699 84° East  Level FlightAware Approximate
Fri 03:37:15 AM 58.1264 -43.9243 84° East  Level FlightAware Approximate
Fri 03:38:15 AM 58.1556 -43.6783 84° East  Level FlightAware Approximate
Fri 03:39:15 AM 58.1844 -43.4319 84° East  Level FlightAware Approximate
Fri 03:40:15 AM 58.2126 -43.1851 85° East  Level FlightAware Approximate
Fri 03:41:15 AM 58.2404 -42.9379 85° East  Level FlightAware Approximate
Fri 03:42:15 AM 58.2677 -42.6903 85° East  Level FlightAware Approximate
Fri 03:43:15 AM 58.2945 -42.4423 85° East  Level FlightAware Approximate
Fri 03:44:15 AM 58.3208 -42.1940 86° East  Level FlightAware Approximate
Fri 03:45:15 AM 58.3466 -41.9453 86° East  Level FlightAware Approximate
Fri 03:46:15 AM 58.3720 -41.6962 86° East  Level FlightAware Approximate
Fri 03:47:15 AM 58.3969 -41.4468 86° East  Level FlightAware Approximate
Fri 03:48:15 AM 58.4213 -41.1970 87° East  Level FlightAware Approximate
Fri 03:49:15 AM 58.4452 -40.9469 87° East  Level FlightAware Approximate
Fri 03:50:15 AM 58.4686 -40.6964 87° East  Level FlightAware Approximate
Fri 03:51:15 AM 58.4915 -40.4456 87° East  Level FlightAware Approximate
Fri 03:52:15 AM 58.5072 -40.1922 88° East  Level FlightAware Approximate
Fri 03:53:15 AM 58.5224 -39.9385 88° East  Level FlightAware Approximate
Fri 03:54:15 AM 58.5371 -39.6846 88° East  Level FlightAware Approximate
Fri 03:55:15 AM 58.5513 -39.4305 88° East  Level FlightAware Approximate
Fri 03:56:15 AM 58.5649 -39.1763 89° East  Level FlightAware Approximate
Fri 03:57:15 AM 58.5781 -38.9218 89° East  Level FlightAware Approximate
Fri 03:58:15 AM 58.5908 -38.6671 89° East  Level FlightAware Approximate
Fri 03:59:15 AM 58.6030 -38.4123 89° East  Level FlightAware Approximate
Fri 04:00:15 AM 58.6146 -38.1572 90° East  Level FlightAware Approximate
Fri 04:01:15 AM 58.6258 -37.9020 90° East  Level FlightAware Approximate
Fri 04:02:15 AM 58.6365 -37.6467 90° East  Level FlightAware Approximate
Fri 04:03:15 AM 58.6466 -37.3912 90° East  Level FlightAware Approximate
Fri 04:04:15 AM 58.6562 -37.1355 91° East  Level FlightAware Approximate
Fri 04:05:15 AM 58.6654 -36.8797 91° East  Level FlightAware Approximate
Fri 04:06:15 AM 58.6740 -36.6238 91° East  Level FlightAware Approximate
Fri 04:07:15 AM 58.6821 -36.3678 91° East  Level FlightAware Approximate
Fri 04:08:15 AM 58.6898 -36.1116 92° East  Level FlightAware Approximate
Fri 04:09:15 AM 58.6968 -35.8553 92° East  Level FlightAware Approximate
Fri 04:10:15 AM 58.7034 -35.5990 92° East  Level FlightAware Approximate
Fri 04:11:15 AM 58.7095 -35.3425 92° East  Level FlightAware Approximate
Fri 04:12:15 AM 58.7151 -35.0860 93° East  Level FlightAware Approximate
Fri 04:13:15 AM 58.7202 -34.8293 93° East  Level FlightAware Approximate
Fri 04:14:15 AM 58.7247 -34.5727 93° East  Level FlightAware Approximate
Fri 04:15:15 AM 58.7288 -34.3159 93° East  Level FlightAware Approximate
Fri 04:16:15 AM 58.7323 -34.0591 94° East  Level FlightAware Approximate
Fri 04:17:15 AM 58.7353 -33.8022 94° East  Level FlightAware Approximate
Fri 04:18:15 AM 58.7378 -33.5453 94° East  Level FlightAware Approximate
Fri 04:19:15 AM 58.7398 -33.2884 95° East  Level FlightAware Approximate
Fri 04:20:15 AM 58.7413 -33.0314 95° East  Level FlightAware Approximate
Fri 04:21:15 AM 58.7423 -32.7744 95° East  Level FlightAware Approximate
Fri 04:22:15 AM 58.7428 -32.5174 95° East  Level FlightAware Approximate
Fri 04:23:15 AM 58.7427 -32.2604 96° East  Level FlightAware Approximate
Fri 04:24:15 AM 58.7422 -32.0034 96° East  Level FlightAware Approximate
Fri 04:25:15 AM 58.7411 -31.7465 96° East  Level FlightAware Approximate
Fri 04:26:15 AM 58.7395 -31.4895 96° East  Level FlightAware Approximate
Fri 04:27:15 AM 58.7374 -31.2326 97° East  Level FlightAware Approximate
Fri 04:28:15 AM 58.7348 -30.9757 97° East  Level FlightAware Approximate
Fri 04:29:15 AM 58.7317 -30.7183 97° East  Level FlightAware Approximate
Fri 04:30:15 AM 58.7281 -30.4610 97° East  Level FlightAware Approximate
Fri 04:31:15 AM 58.7239 -30.2038 98° East  Level FlightAware Approximate
Fri 04:32:15 AM 58.7159 -29.9470 98° East  Level FlightAware Approximate
Fri 04:33:15 AM 58.7074 -29.6902 98° East  Level FlightAware Approximate
Fri 04:34:15 AM 58.6983 -29.4336 98° East  Level FlightAware Approximate
Fri 04:35:15 AM 58.6888 -29.1772 99° East  Level FlightAware Approximate
Fri 04:36:15 AM 58.6787 -28.9208 99° East  Level FlightAware Approximate
Fri 04:37:15 AM 58.6681 -28.6647 99° East  Level FlightAware Approximate
Fri 04:38:15 AM 58.6570 -28.4087 99° East  Level FlightAware Approximate
Fri 04:39:15 AM 58.6454 -28.1528 100° East  Level FlightAware Approximate
Fri 04:40:15 AM 58.6333 -27.8972 100° East  Level FlightAware Approximate
Fri 04:41:15 AM 58.6207 -27.6417 100° East  Level FlightAware Approximate
Fri 04:42:15 AM 58.6076 -27.3864 101° East  Level FlightAware Approximate
Fri 04:43:15 AM 58.5940 -27.1313 101° East  Level FlightAware Approximate
Fri 04:44:15 AM 58.5702 -26.8791 101° East  Level FlightAware Approximate
Fri 04:45:15 AM 58.5460 -26.6272 101° East  Level FlightAware Approximate
Fri 04:46:15 AM 58.5212 -26.3757 101° East  Level FlightAware Approximate
Fri 04:47:15 AM 58.4959 -26.1245 102° East  Level FlightAware Approximate
Fri 04:48:15 AM 58.4702 -25.8737 102° East  Level FlightAware Approximate
Fri 04:49:15 AM 58.4440 -25.6233 102° East  Level FlightAware Approximate
Fri 04:50:15 AM 58.4173 -25.3733 102° East  Level FlightAware Approximate
Fri 04:51:15 AM 58.3901 -25.1236 103° East  Level FlightAware Approximate
Fri 04:52:15 AM 58.3624 -24.8743 103° East  Level FlightAware Approximate
Fri 04:53:15 AM 58.3343 -24.6255 103° East  Level FlightAware Approximate
Fri 04:54:15 AM 58.3056 -24.3770 103° East  Level FlightAware Approximate
Fri 04:55:15 AM 58.2765 -24.1289 103° East  Level FlightAware Approximate
Fri 04:56:15 AM 58.2469 -23.8812 104° East  Level FlightAware Approximate
Fri 04:57:15 AM 58.2168 -23.6340 104° East  Level FlightAware Approximate
Fri 04:58:15 AM 58.1862 -23.3871 104° East  Level FlightAware Approximate
Fri 04:59:15 AM 58.1552 -23.1407 104° East  Level FlightAware Approximate
Fri 05:00:15 AM 58.1237 -22.8948 104° East  Level FlightAware Approximate
Fri 05:01:15 AM 58.0917 -22.6492 105° East  Level FlightAware Approximate
Fri 05:02:15 AM 58.0592 -22.4042 105° East  Level FlightAware Approximate
Fri 05:03:15 AM 58.0263 -22.1595 105° East  Level FlightAware Approximate
Fri 05:04:15 AM 57.9929 -21.9153 105° East  Level FlightAware Approximate
Fri 05:05:15 AM 57.9590 -21.6716 106° East  Level FlightAware Approximate
Fri 05:06:15 AM 57.9247 -21.4284 106° East  Level FlightAware Approximate
Fri 05:07:15 AM 57.8899 -21.1856 106° East  Level FlightAware Approximate
Fri 05:08:15 AM 57.8547 -20.9433 106° East  Level FlightAware Approximate
Fri 05:09:15 AM 57.8190 -20.7014 106° East  Level FlightAware Approximate
Fri 05:10:15 AM 57.7828 -20.4601 107° East  Level FlightAware Approximate
Fri 05:11:15 AM 57.7440 -20.2204 107° East  Level FlightAware Approximate
Fri 05:12:15 AM 57.7048 -19.9812 107° East  Level FlightAware Approximate
Fri 05:13:15 AM 57.6652 -19.7425 107° East  Level FlightAware Approximate
Fri 05:14:15 AM 57.6251 -19.5044 107° East  Level FlightAware Approximate
Fri 05:15:15 AM 57.5845 -19.2668 108° East  Level FlightAware Approximate
Fri 05:16:15 AM 57.5435 -19.0297 108° East  Level FlightAware Approximate
Fri 05:17:15 AM 57.5020 -18.7932 108° East  Level FlightAware Approximate
Fri 05:18:15 AM 57.4602 -18.5572 108° East  Level FlightAware Approximate
Fri 05:19:15 AM 57.4178 -18.3217 108° East  Level FlightAware Approximate
Fri 05:20:15 AM 57.3751 -18.0868 109° East  Level FlightAware Approximate
Fri 05:21:15 AM 57.3319 -17.8525 109° East  Level FlightAware Approximate
Fri 05:22:15 AM 57.2882 -17.6187 109° East  Level FlightAware Approximate
Fri 05:23:15 AM 57.2442 -17.3854 109° East  Level FlightAware Approximate
Fri 05:24:15 AM 57.1997 -17.1527 109° East  Level FlightAware Approximate
Fri 05:25:15 AM 57.1547 -16.9206 110° East  Level FlightAware Approximate
Fri 05:26:15 AM 57.1094 -16.6890 110° East  Level FlightAware Approximate
Fri 05:27:15 AM 57.0636 -16.4580 110° East  Level FlightAware Approximate
Fri 05:28:15 AM 57.0175 -16.2281 110° East  Level FlightAware Approximate
Fri 05:29:15 AM 56.9709 -15.9986 110° East  Level FlightAware Approximate
Fri 05:30:15 AM 56.9240 -15.7698 111° Southeast  Level FlightAware Approximate
Fri 05:31:15 AM 56.8766 -15.5415 111° Southeast  Level FlightAware Approximate
Fri 05:32:15 AM 56.8288 -15.3139 111° Southeast  Level FlightAware Approximate
Fri 05:33:15 AM 56.7806 -15.0868 111° Southeast  Level FlightAware Approximate
Fri 05:34:15 AM 56.7318 -14.8594 111° Southeast  Level FlightAware Approximate
Fri 05:35:15 AM 56.6826 -14.6326 112° Southeast  Level FlightAware Approximate
Fri 05:36:15 AM 56.6330 -14.4065 112° Southeast  Level FlightAware Approximate
Fri 05:37:15 AM 56.5829 -14.1809 112° Southeast  Level FlightAware Approximate
Fri 05:38:15 AM 56.5325 -13.9559 112° Southeast  Level FlightAware Approximate
Fri 05:39:15 AM 56.4817 -13.7315 112° Southeast  Level FlightAware Approximate
Fri 05:40:15 AM 56.4304 -13.5077 112° Southeast  Level FlightAware Approximate
Fri 05:41:15 AM 56.3787 -13.2845 113° Southeast  Level FlightAware Approximate
Fri 05:42:15 AM 56.3267 -13.0619 113° Southeast  Level FlightAware Approximate
Fri 05:43:15 AM 56.2743 -12.8400 113° Southeast  Level FlightAware Approximate
Fri 05:44:15 AM 56.2214 -12.6186 113° Southeast  Level FlightAware Approximate
Fri 05:45:15 AM 56.1682 -12.3979 113° Southeast  Level FlightAware Approximate
Fri 05:46:15 AM 56.1145 -12.1778 114° Southeast  Level FlightAware Approximate
Fri 05:47:15 AM 56.0605 -11.9583 114° Southeast  Level FlightAware Approximate
Fri 05:48:15 AM 56.0061 -11.7394 114° Southeast  Level FlightAware Approximate
Fri 05:49:15 AM 55.9513 -11.5211 114° Southeast  Level FlightAware Approximate
Fri 05:50:15 AM 55.8952 -11.2996 114° Southeast  Level FlightAware Approximate
Fri 05:51:15 AM 55.8386 -11.0788 114° Southeast  Level FlightAware Approximate
Fri 05:52:15 AM 55.7817 -10.8587 115° Southeast  Level FlightAware Approximate
Fri 05:53:15 AM 55.7243 -10.6392 115° Southeast  Level FlightAware Approximate
Fri 05:54:15 AM 55.6666 -10.4203 115° Southeast  Level FlightAware Approximate
Fri 05:55:15 AM 55.6085 -10.2021 115° Southeast  Level FlightAware Approximate
Fri 05:56:15 AM 55.6630 -9.9871 117° Southeast  Level FlightAware Approximate
Fri 05:57:15 AM 55.6011 -9.7722 117° Southeast  Level FlightAware Approximate
Fri 05:58:15 AM 55.5389 -9.5579 117° Southeast  Level FlightAware Approximate
Fri 05:59:15 AM 55.4763 -9.3444 117° Southeast  Level FlightAware Approximate
Fri 06:00:15 AM 55.4133 -9.1315 117° Southeast  Level FlightAware Approximate
Fri 06:01:15 AM 55.3499 -8.9193 117° Southeast  Level FlightAware Approximate
Fri 06:02:15 AM 55.2808 -8.7131 117° Southeast  Level FlightAware Approximate
Fri 06:03:15 AM 55.2114 -8.5076 117° Southeast  Level FlightAware Approximate
Fri 06:04:15 AM 55.1416 -8.3028 118° Southeast  Level FlightAware Approximate
Fri 06:05:15 AM 55.0714 -8.0987 118° Southeast  Level FlightAware Approximate
Fri 06:06:15 AM 55.0010 -7.8954 118° Southeast  Level FlightAware Approximate
Fri 06:07:15 AM 54.9301 -7.6927 118° Southeast  Level FlightAware Approximate
Fri 06:08:15 AM 54.8590 -7.4908 118° Southeast  Level FlightAware Approximate
Fri 06:09:15 AM 54.7875 -7.2896 117° Southeast  Level FlightAware Approximate
Fri 06:10:15 AM 54.7157 -7.0891 117° Southeast  Level FlightAware Approximate
Fri 06:11:15 AM 54.6436 -6.8893 117° Southeast  Level FlightAware Approximate
Fri 06:12:15 AM 54.5711 -6.6902 117° Southeast  Level FlightAware Approximate
Fri 06:13:15 AM 54.4983 -6.4918 117° Southeast  Level FlightAware Approximate
Fri 06:14:15 AM 54.5098 -6.2628 119° Southeast  Level FlightAware Approximate
Fri 06:15:15 AM 54.4246 -6.0800 119° Southeast  Level FlightAware Approximate
Fri 06:16:15 AM 54.3392 -5.8979 118° Southeast  Level FlightAware Approximate
Fri 06:17:15 AM 54.2535 -5.7165 117° Southeast  Level FlightAware Approximate
Fri 06:18:15 AM 54.1675 -5.5359 116° Southeast  Level FlightAware Approximate
Fri 06:19:15 AM 54.0828 -5.3591 115° Southeast  Level FlightAware Approximate
Fri 06:20:15 AM 53.9978 -5.1830 114° Southeast  Level FlightAware Approximate
Fri 06:21:15 AM 53.9125 -5.0077 112° Southeast  Level FlightAware Approximate
Fri 06:22:15 AM 53.8270 -4.8330 109° East  Level FlightAware Approximate
Fri 06:23:15 AM 53.7412 -4.6591 106° East  Level FlightAware Approximate
Fri 06:29:01 AM 53.5104 -3.3684 125° Southeast 433 498 35,000  Level FlightAware ADS-B
Fri 06:29:32 AM 53.4747 -3.2839 125° Southeast 435 501 35,000  Level FlightAware ADS-B
Fri 06:30:26 AM 53.4119 -3.1358 125° Southeast 435 501 35,000  Level FlightAware ADS-B
Fri 06:30:57 AM 53.3761 -3.0515 126° Southeast 436 502 35,000  Level FlightAware ADS-B
Fri 06:31:27 AM 53.3405 -2.9686 126° Southeast 436 502 35,000  Level FlightAware ADS-B
Fri 06:32:20 AM 53.2785 -2.8247 127° Southeast 435 501 35,000  Level FlightAware ADS-B
Fri 06:33:02 AM 53.2284 -2.7140 144° Southeast 434 499 35,000  Level FlightAware ADS-B
Fri 06:33:33 AM 53.1773 -2.6525 143° Southeast 432 497 35,000  Level FlightAware ADS-B
Fri 06:34:08 AM 53.1220 -2.5830 141° Southeast 431 496 35,000  Level FlightAware ADS-B
Fri 06:34:37 AM 53.0770 -2.5224 140° Southeast 430 495 35,000  Level FlightAware ADS-B
Fri 06:35:11 AM 53.0253 -2.4508 140° Southeast 429 494 35,000  Level FlightAware ADS-B
Fri 06:35:47 AM 52.9714 -2.3763 143° Southeast 426 490 35,000 -519 Level FlightAware ADS-B
Fri 06:36:32 AM 52.9016 -2.2876 142° Southeast 422 486 34,300 -1,385 Descending FlightAware ADS-B
Fri 06:37:05 AM 52.8516 -2.2237 142° Southeast 413 475 33,200 -1,974 Descending FlightAware ADS-B
Fri 06:37:48 AM 52.7874 -2.1419 143° Southeast 404 465 31,800 -1,865 Descending FlightAware ADS-B
Fri 06:38:19 AM 52.7429 -2.0857 143° Southeast 397 457 30,900 -1,810 Descending FlightAware ADS-B
Fri 06:38:51 AM 52.6969 -2.0277 143° Southeast 390 449 29,900 -1,846 Descending FlightAware ADS-B
Fri 06:39:24 AM 52.6502 -1.9691 143° Southeast 384 442 28,900 -1,781 Descending FlightAware ADS-B
Fri 06:39:55 AM 52.6065 -1.9142 143° Southeast 378 435 28,000 -1,742 Descending FlightAware ADS-B
Fri 06:40:26 AM 52.5644 -1.8615 143° Southeast 372 428 27,100 -1,770 Descending FlightAware ADS-B
Fri 06:40:56 AM 52.5239 -1.8109 143° Southeast 367 422 26,200 -1,900 Descending FlightAware ADS-B
Fri 06:41:26 AM 52.4834 -1.7606 143° Southeast 365 420 25,200 -2,361 Descending FlightAware ADS-B
Fri 06:41:57 AM 52.4405 -1.7075 143° Southeast 375 432 23,800 -2,190 Descending FlightAware ADS-B
Fri 06:42:29 AM 52.3967 -1.6537 143° Southeast 367 422 22,900 -1,636 Descending FlightAware ADS-B
Fri 06:43:03 AM 52.3514 -1.5975 143° Southeast 359 413 22,000 -1,574 Descending FlightAware ADS-B
Fri 06:43:30 AM 52.3193 -1.5580 143° Southeast 354 407 21,300 -1,729 Descending FlightAware ADS-B
Fri 06:44:02 AM 52.2746 -1.5035 143° Southeast 350 403 20,300 -1,322 Descending FlightAware ADS-B
Fri 06:44:29 AM 52.2400 -1.4609 140° Southeast 343 395 20,000 -712 Descending FlightAware ADS-B
Fri 06:45:01 AM 52.2007 -1.4073 139° Southeast 344 396 19,600 -1,200 Descending FlightAware ADS-B
Fri 06:45:34 AM 52.1614 -1.3522 140° Southeast 341 392 18,700 -1,714 Descending FlightAware ADS-B
Fri 06:46:04 AM 52.1246 -1.3010 139° Southeast 340 391 17,800 -1,594 Descending FlightAware ADS-B
Fri 06:46:38 AM 52.0850 -1.2458 140° Southeast 334 384 17,000 -738 Descending FlightAware ADS-B
Fri 06:47:09 AM 52.0515 -1.1996 140° Southeast 299 344 17,000  Level FlightAware ADS-B
Fri 06:47:34 AM 52.0256 -1.1641 140° Southeast 288 331 17,000  Level FlightAware ADS-B
Fri 06:48:05 AM 51.9947 -1.1213 140° Southeast 287 330 17,000  Level FlightAware ADS-B
Fri 06:48:36 AM 51.9629 -1.0775 138° Southeast 287 330 17,000  Level FlightAware ADS-B
Fri 06:48:48 AM 51.9509 -1.0597 132° Southeast 286 329 17,000  Level FlightAware ADS-B
Fri 06:48:58 AM 51.9423 -1.0444 126° Southeast 286 329 17,000 -571 Level FlightAware ADS-B
Fri 06:49:09 AM 51.9337 -1.0255 122° Southeast 285 328 16,800 -1,171 Descending FlightAware ADS-B
Fri 06:49:39 AM 51.9130 -0.9716 123° Southeast 283 326 16,200 -984 Descending FlightAware ADS-B
Fri 06:50:10 AM 51.8908 -0.9155 122° Southeast 283 326 15,800 -968 Descending FlightAware ADS-B
Fri 06:50:41 AM 51.8697 -0.8606 122° Southeast 280 322 15,200 -814 Descending FlightAware ADS-B
Fri 06:51:09 AM 51.8502 -0.8106 123° Southeast 288 331 15,000 -207 Descending FlightAware ADS-B
Fri 06:51:39 AM 51.8287 -0.7562 122° Southeast 285 328 15,000  Level FlightAware ADS-B
Fri 06:52:10 AM 51.8070 -0.7011 123° Southeast 283 326 15,000  Level FlightAware ADS-B
Fri 06:52:42 AM 51.7846 -0.6445 122° Southeast 283 326 15,000  Level FlightAware ADS-B
Fri 06:53:12 AM 51.7633 -0.5904 123° Southeast 286 329 15,000 -305 Level FlightAware ADS-B
Fri 06:53:41 AM 51.7423 -0.5380 129° Southeast 282 325 14,700 -649 Descending FlightAware ADS-B
Fri 06:53:49 AM 51.7362 -0.5258 140° Southeast 279 321 14,600 -923 Descending FlightAware ADS-B
Fri 06:53:54 AM 51.7312 -0.5191 149° Southeast 277 319 14,500 -1,200 Descending FlightAware ADS-B
Fri 06:53:59 AM 51.7260 -0.5140 161° South 274 315 14,400 -1,714 Descending FlightAware ADS-B
Fri 06:54:08 AM 51.7147 -0.5078 173° South 270 311 14,100 -1,286 Descending FlightAware ADS-B
Fri 06:54:13 AM 51.7096 -0.5067 182° South 270 311 14,100 -600 Level FlightAware ADS-B
Fri 06:54:18 AM 51.7027 -0.5071 191° South 270 311 14,000 -545 Descending FlightAware ADS-B
Fri 06:54:24 AM 51.6958 -0.5092 200° South 269 310 14,000  Level FlightAware ADS-B
Fri 06:54:31 AM 51.6877 -0.5140 211° Southwest 267 307 14,000  Level FlightAware ADS-B
Fri 06:54:36 AM 51.6822 -0.5193 220° Southwest 265 305 14,000  Level FlightAware ADS-B
Fri 06:54:41 AM 51.6776 -0.5255 229° Southwest 261 300 14,000  Level FlightAware ADS-B
Fri 06:54:44 AM 51.6751 -0.5301 236° Southwest 259 298 14,000  Level FlightAware ADS-B
Fri 06:54:51 AM 51.6706 -0.5408 247° West 256 295 14,000  Level FlightAware ADS-B
Fri 06:54:58 AM 51.6675 -0.5526 257° West 254 292 14,000  Level FlightAware ADS-B
Fri 06:55:03 AM 51.6660 -0.5633 266° West 253 291 14,000  Level FlightAware ADS-B
Fri 06:55:09 AM 51.6655 -0.5740 276° West 253 291 14,000  Level FlightAware ADS-B
Fri 06:55:14 AM 51.6660 -0.5823 280° West 254 292 14,000 -667 Level FlightAware ADS-B
Fri 06:55:18 AM 51.6670 -0.5913 291° West 255 293 13,900 -667 Descending FlightAware ADS-B
Fri 06:55:23 AM 51.6689 -0.5994 297° West 255 293 13,900 -800 Level FlightAware ADS-B
Fri 06:55:33 AM 51.6744 -0.6166 296° West 255 293 13,700 -1,059 Descending FlightAware ADS-B
Fri 06:55:40 AM 51.6780 -0.6285 292° West 253 291 13,600 -1,333 Descending FlightAware ADS-B
Fri 06:56:00 AM 51.6867 -0.6633 296° West 252 290 13,100 -766 Descending FlightAware ADS-B
Fri 06:56:27 AM 51.7005 -0.7091 301° West 255 293 13,000 -171 Descending FlightAware ADS-B
Fri 06:56:35 AM 51.7054 -0.7224 313° West 256 295 13,000  Level FlightAware ADS-B
Fri 06:56:40 AM 51.7090 -0.7285 321° Northwest 256 295 13,000  Level FlightAware ADS-B
Fri 06:56:44 AM 51.7133 -0.7341 329° Northwest 257 296 13,000  Level FlightAware ADS-B
Fri 06:56:50 AM 51.7193 -0.7399 337° Northwest 258 297 13,000  Level FlightAware ADS-B
Fri 06:56:55 AM 51.7246 -0.7435 342° North 260 299 13,000  Level FlightAware ADS-B
Fri 06:56:58 AM 51.7281 -0.7454 347° North 261 300 13,000  Level FlightAware ADS-B
Fri 06:57:02 AM 51.7327 -0.7471 359° North 263 303 13,000  Level FlightAware ADS-B
Fri 06:57:13 AM 51.7463 -0.7474 15° North 268 308 13,000  Level FlightAware ADS-B
Fri 06:57:21 AM 51.7556 -0.7435 25° Northeast 270 311 13,000  Level FlightAware ADS-B
Fri 06:57:25 AM 51.7602 -0.7401 35° Northeast 273 314 13,000  Level FlightAware ADS-B
Fri 06:57:32 AM 51.7671 -0.7323 46° Northeast 276 318 13,000 -429 Level FlightAware ADS-B
Fri 06:57:39 AM 51.7736 -0.7214 57° Northeast 279 321 12,900 -1,000 Descending FlightAware ADS-B
Fri 06:57:44 AM 51.7774 -0.7117 69° East 281 323 12,800 -1,091 Descending FlightAware ADS-B
Fri 06:57:50 AM 51.7798 -0.7018 78° East 281 323 12,700 -1,000 Descending FlightAware ADS-B
Fri 06:57:56 AM 51.7815 -0.6886 90° East 279 321 12,600 -1,200 Descending FlightAware ADS-B
Fri 06:58:00 AM 51.7815 -0.6794 95° East 278 320 12,500 -750 Descending FlightAware ADS-B
Fri 06:58:04 AM 51.7810 -0.6709 106° East 276 318 12,500 -1,091 Level FlightAware ADS-B
Fri 06:58:11 AM 51.7786 -0.6575 116° Southeast 274 315 12,300 -1,250 Descending FlightAware ADS-B
Fri 06:58:28 AM 51.7691 -0.6266 116° Southeast 269 310 12,000 -383 Descending FlightAware ADS-B
Fri 06:58:58 AM 51.7526 -0.5718 118° Southeast 273 314 12,000  Level FlightAware ADS-B
Fri 06:59:16 AM 51.7420 -0.5394 124° Southeast 271 312 12,000 -240 Level FlightAware ADS-B
Fri 06:59:23 AM 51.7377 -0.5293 134° Southeast 268 308 11,900 -600 Descending FlightAware ADS-B
Fri 06:59:26 AM 51.7348 -0.5244 142° Southeast 266 306 11,900 -750 Level FlightAware ADS-B
Fri 06:59:31 AM 51.7305 -0.5191 152° Southeast 264 304 11,800 -1,333 Descending FlightAware ADS-B
Fri 06:59:35 AM 51.7257 -0.5150 159° South 262 302 11,700 -1,333 Descending FlightAware ADS-B
Fri 06:59:40 AM 51.7204 -0.5118 167° South 259 298 11,600 -1,333 Descending FlightAware ADS-B
Fri 06:59:44 AM 51.7157 -0.5100 175° South 257 296 11,500 -1,333 Descending FlightAware ADS-B
Fri 06:59:49 AM 51.7099 -0.5092 182° South 255 293 11,400 -1,333 Descending FlightAware ADS-B
Fri 06:59:53 AM 51.7044 -0.5095 191° South 253 291 11,300 -1,714 Descending FlightAware ADS-B
Fri 06:59:56 AM 51.7010 -0.5106 198° South 252 290 11,200 -1,500 Descending FlightAware ADS-B
Fri 07:00:01 AM 51.6964 -0.5129 205° Southwest 249 287 11,100 -750 Descending FlightAware ADS-B
Fri 07:00:04 AM 51.6929 -0.5155 212° Southwest 248 285 11,100 -857 Level FlightAware ADS-B
Fri 07:00:08 AM 51.6886 -0.5198 220° Southwest 249 287 11,000 -667 Descending FlightAware ADS-B
Fri 07:00:13 AM 51.6842 -0.5258 230° Southwest 248 285 11,000  Level FlightAware ADS-B
Fri 07:00:21 AM 51.6787 -0.5365 239° Southwest 248 285 11,000  Level FlightAware ADS-B
Fri 07:00:25 AM 51.6761 -0.5435 248° West 248 285 11,000  Level FlightAware ADS-B
Fri 07:00:29 AM 51.6744 -0.5504 257° West 247 284 11,000  Level FlightAware ADS-B
Fri 07:00:36 AM 51.6728 -0.5613 268° West 246 283 11,000  Level FlightAware ADS-B
Fri 07:00:42 AM 51.6726 -0.5730 276° West 245 282 11,000  Level FlightAware ADS-B
Fri 07:00:46 AM 51.6731 -0.5803 287° West 247 284 11,000  Level FlightAware ADS-B
Fri 07:00:49 AM 51.6742 -0.5862 289° West 247 284 11,000  Level FlightAware ADS-B
Fri 07:00:53 AM 51.6757 -0.5931 296° West 248 285 11,000  Level FlightAware ADS-B
Fri 07:01:06 AM 51.6823 -0.6149 294° West 249 287 11,000 -545 Level FlightAware ADS-B
Fri 07:01:37 AM 51.6964 -0.6659 296° West 245 282 10,600 -1,000 Descending FlightAware ADS-B
Fri 07:02:00 AM 51.7077 -0.7028 301° West 243 280 10,100 -1,111 Descending FlightAware ADS-B
Fri 07:02:04 AM 51.7104 -0.7100 309° West 244 281 10,100 -667 Level FlightAware ADS-B
Fri 07:02:09 AM 51.7132 -0.7155 320° Northwest 245 282 10,000 -600 Descending FlightAware ADS-B
Fri 07:02:14 AM 51.7181 -0.7222 332° Northwest 249 287 10,000  Level FlightAware ADS-B
Fri 07:02:21 AM 51.7259 -0.7289 340° North 252 290 10,000  Level FlightAware ADS-B
Fri 07:02:27 AM 51.7322 -0.7327 350° North 255 293 10,000  Level FlightAware ADS-B
Fri 07:02:33 AM 51.7391 -0.7346 359° North 257 296 10,000  Level FlightAware ADS-B
Fri 07:02:38 AM 51.7453 -0.7347 12° North 259 298 10,000  Level FlightAware ADS-B
Fri 07:02:46 AM 51.7543 -0.7316 20° North 261 300 10,000  Level FlightAware ADS-B
Fri 07:02:49 AM 51.7580 -0.7294 30° Northeast 261 300 10,000  Level FlightAware ADS-B
Fri 07:02:53 AM 51.7617 -0.7260 34° Northeast 262 302 10,000  Level FlightAware ADS-B
Fri 07:02:56 AM 51.7652 -0.7222 45° Northeast 262 302 10,000  Level FlightAware ADS-B
Fri 07:03:03 AM 51.7708 -0.7131 54° Northeast 264 304 10,000  Level FlightAware ADS-B
Fri 07:03:07 AM 51.7743 -0.7052 66° East 265 305 10,000  Level FlightAware ADS-B
Fri 07:03:14 AM 51.7774 -0.6940 76° East 266 306 10,000  Level FlightAware ADS-B
Fri 07:03:19 AM 51.7788 -0.6848 88° East 267 307 10,000  Level FlightAware ADS-B
Fri 07:03:25 AM 51.7791 -0.6717 99° East 267 307 10,000  Level FlightAware ADS-B
Fri 07:03:30 AM 51.7781 -0.6619 107° East 266 306 10,000  Level FlightAware ADS-B
Fri 07:03:35 AM 51.7765 -0.6535 116° Southeast 265 305 10,000  Level FlightAware ADS-B
Fri 07:04:05 AM 51.7605 -0.5994 118° Southeast 263 303 10,000  Level FlightAware ADS-B
Fri 07:04:34 AM 51.7437 -0.5482 120° Southeast 264 304 10,000  Level FlightAware ADS-B
Fri 07:04:41 AM 51.7401 -0.5380 125° Southeast 265 305 10,000  Level FlightAware ADS-B
Fri 07:05:11 AM 51.7185 -0.4891 126° Southeast 263 303 10,000  Level FlightAware ADS-B
Fri 07:05:42 AM 51.6967 -0.4407 126° Southeast 263 303 10,000  Level FlightAware ADS-B
Fri 07:06:00 AM 51.6836 -0.4113 127° Southeast 263 303 10,000  Level FlightAware ADS-B
Fri 07:06:04 AM 51.6807 -0.4051 135° Southeast 263 303 10,000  Level FlightAware ADS-B
Fri 07:06:09 AM 51.6764 -0.3983 143° Southeast 261 300 10,000  Level FlightAware ADS-B
Fri 07:06:14 AM 51.6720 -0.3930 151° Southeast 258 297 10,000  Level FlightAware ADS-B
Fri 07:06:17 AM 51.6689 -0.3902 159° South 256 295 10,000  Level FlightAware ADS-B
Fri 07:06:21 AM 51.6641 -0.3873 168° South 254 292 10,000 -750 Level FlightAware ADS-B
Fri 07:06:25 AM 51.6596 -0.3858 175° South 250 288 9,900 -750 Descending FlightAware ADS-B
Fri 07:06:29 AM 51.6552 -0.3852 182° South 248 285 9,900 -857 Level FlightAware ADS-B
Fri 07:06:32 AM 51.6512 -0.3854 188° South 245 282 9,800 -1,714 Descending FlightAware ADS-B
Fri 07:06:36 AM 51.6477 -0.3862 195° South 244 281 9,700 -750 Descending FlightAware ADS-B
Fri 07:06:40 AM 51.6429 -0.3883 204° Southwest 241 277 9,700 -750 Level FlightAware ADS-B
Fri 07:06:44 AM 51.6385 -0.3914 213° Southwest 241 277 9,600 -1,333 Descending FlightAware ADS-B
Fri 07:06:49 AM 51.6344 -0.3957 220° Southwest 239 275 9,500 -1,500 Descending FlightAware ADS-B
Fri 07:06:52 AM 51.6318 -0.3993 227° Southwest 238 274 9,400 -2,000 Descending FlightAware ADS-B
Fri 07:06:55 AM 51.6292 -0.4037 235° Southwest 238 274 9,300 -1,714 Descending FlightAware ADS-B
Fri 07:06:59 AM 51.6268 -0.4092 244° Southwest 238 274 9,200 -1,500 Descending FlightAware ADS-B
Fri 07:07:03 AM 51.6249 -0.4156 253° West 237 273 9,100 -750 Descending FlightAware ADS-B
Fri 07:07:07 AM 51.6237 -0.4220 259° West 237 273 9,100 -857 Level FlightAware ADS-B
Fri 07:07:10 AM 51.6230 -0.4278 266° West 239 275 9,000 -857 Descending FlightAware ADS-B
Fri 07:07:14 AM 51.6227 -0.4343 270° West 240 276 9,000  Level FlightAware ADS-B
Fri 07:07:31 AM 51.6227 -0.4644 269° West 243 280 9,000  Level FlightAware ADS-B
Fri 07:07:47 AM 51.6223 -0.4933 270° West 243 280 9,000 -188 Level FlightAware ADS-B
Fri 07:08:03 AM 51.6222 -0.5219 269° West 246 283 8,900 -581 Descending FlightAware ADS-B
Fri 07:08:18 AM 51.6218 -0.5501 270° West 244 281 8,700 -774 Descending FlightAware ADS-B
Fri 07:08:34 AM 51.6217 -0.5784 269° West 241 277 8,500 -774 Descending FlightAware ADS-B
Fri 07:08:49 AM 51.6213 -0.6058 269° West 239 275 8,300 -720 Descending FlightAware ADS-B
Fri 07:08:59 AM 51.6211 -0.6233 269° West 240 276 8,200 -857 Descending FlightAware ADS-B
Fri 07:09:03 AM 51.6210 -0.6307 258° West 239 275 8,100 -750 Descending FlightAware ADS-B
Fri 07:09:07 AM 51.6201 -0.6377 255° West 238 274 8,100 -545 Level FlightAware ADS-B
Fri 07:09:14 AM 51.6182 -0.6492 253° West 238 274 8,000 -818 Descending FlightAware ADS-B
Fri 07:09:29 AM 51.6133 -0.6747 253° West 239 275 7,800 -1,000 Descending FlightAware ADS-B
Fri 07:09:44 AM 51.6083 -0.7002 252° West 238 274 7,500 -938 Descending FlightAware ADS-B
Fri 07:10:01 AM 51.6026 -0.7285 252° West 237 273 7,300 -857 Descending FlightAware ADS-B
Fri 07:10:12 AM 51.5987 -0.7476 249° West 238 274 7,100 -1,059 Descending FlightAware ADS-B
Fri 07:10:18 AM 51.5966 -0.7565 239° Southwest 238 274 7,000 -923 Descending FlightAware ADS-B
Fri 07:10:25 AM 51.5925 -0.7675 236° Southwest 238 274 6,900 -818 Descending FlightAware ADS-B
Fri 07:10:40 AM 51.5834 -0.7895 236° Southwest 232 267 6,700 -774 Descending FlightAware ADS-B
Fri 07:10:56 AM 51.5741 -0.8118 236° Southwest 226 260 6,500 -938 Descending FlightAware ADS-B
Fri 07:11:12 AM 51.5652 -0.8331 236° Southwest 211 243 6,200 -1,000 Descending FlightAware ADS-B
Fri 07:11:20 AM 51.5609 -0.8432 235° Southwest 207 238 6,100 -500 Descending FlightAware ADS-B
Fri 07:11:24 AM 51.5588 -0.8480 228° Southwest 207 238 6,100 -857 Level FlightAware ADS-B
Fri 07:11:27 AM 51.5569 -0.8514 221° Southwest 206 237 6,000 -1,000 Descending FlightAware ADS-B
Fri 07:11:30 AM 51.5540 -0.8556 212° Southwest 206 237 6,000 -667 Level FlightAware ADS-B
Fri 07:11:36 AM 51.5501 -0.8595 201° Southwest 206 237 5,900 -1,333 Descending FlightAware ADS-B
Fri 07:11:39 AM 51.5470 -0.8614 192° South 205 236 5,800 -1,000 Descending FlightAware ADS-B
Fri 07:11:42 AM 51.5442 -0.8624 185° South 205 236 5,800  Level FlightAware ADS-B
Fri 07:11:46 AM 51.5406 -0.8630 178° South 204 235 5,800 -750 Level FlightAware ADS-B
Fri 07:11:58 AM 51.5288 -0.8623 177° South 203 234 5,600 -1,200 Descending FlightAware ADS-B
Fri 07:12:06 AM 51.5218 -0.8616 174° South 201 231 5,400 -1,000 Descending FlightAware ADS-B
Fri 07:12:10 AM 51.5180 -0.8609 166° South 200 230 5,400 -750 Level FlightAware ADS-B
Fri 07:12:14 AM 51.5144 -0.8595 156° South 199 229 5,300 -1,714 Descending FlightAware ADS-B
Fri 07:12:17 AM 51.5118 -0.8577 148° Southeast 197 227 5,200 -857 Descending FlightAware ADS-B
Fri 07:12:21 AM 51.5087 -0.8546 137° Southeast 196 226 5,200 -750 Level FlightAware ADS-B
Fri 07:12:25 AM 51.5065 -0.8513 130° Southeast 194 223 5,100 -1,714 Descending FlightAware ADS-B
Fri 07:12:28 AM 51.5044 -0.8473 124° Southeast 192 221 5,000 -1,000 Descending FlightAware ADS-B
Fri 07:12:31 AM 51.5029 -0.8437 116° Southeast 191 220 5,000  Level FlightAware ADS-B
Fri 07:12:34 AM 51.5017 -0.8398 117° Southeast 190 219 5,000 -923 Level FlightAware ADS-B
Fri 07:12:44 AM 51.4979 -0.8276 113° Southeast 192 221 4,800 -1,200 Descending FlightAware ADS-B
Fri 07:12:49 AM 51.4962 -0.8211 107° East 191 220 4,700 -1,200 Descending FlightAware ADS-B
Fri 07:12:54 AM 51.4950 -0.8149 99° East 190 219 4,600 -750 Descending FlightAware ADS-B
Fri 07:12:57 AM 51.4945 -0.8099 96° East 189 217 4,600 -1,091 Level FlightAware ADS-B
Fri 07:13:05 AM 51.4938 -0.7991 94° East 188 216 4,400 -1,200 Descending FlightAware ADS-B
Fri 07:13:12 AM 51.4934 -0.7888 92° East 187 215 4,300 -783 Descending FlightAware ADS-B
Fri 07:13:28 AM 51.4931 -0.7775 94° East 186 214 4,100 -900 Descending FlightAware ADS-B
Fri 07:13:32 AM 51.4927 -0.7684 88° East 187 215 4,000 -2,250 Descending FlightAware ADS-B
Fri 07:13:36 AM 51.4929 -0.7564 90° East 187 215 3,800 -2,250 Descending FlightAware ADS-B
Fri 07:13:40 AM 51.4929 -0.7517 90° East 186 214 3,700 -750 Descending FlightAware ADS-B
Fri 07:13:44 AM 51.4929 -0.7451 88° East 186 214 3,700 -900 Level FlightAware ADS-B
Fri 07:14:00 AM 51.4934 -0.7226 89° East 184 212 3,400 -1,161 Descending FlightAware ADS-B
Fri 07:14:15 AM 51.4936 -0.7031 89° East 174 200 3,100 -1,000 Descending FlightAware ADS-B
Fri 07:14:30 AM 51.4938 -0.6841 90° East 167 192 2,900 -968 Descending FlightAware ADS-B
Fri 07:14:46 AM 51.4939 -0.6649 89° East 163 188 2,600 -938 Descending FlightAware ADS-B
Fri 07:15:02 AM 51.4941 -0.6462 89° East 161 185 2,400 -968 Descending FlightAware ADS-B
Fri 07:15:17 AM 51.4943 -0.6280 90° East 159 183 2,100 -1,000 Descending FlightAware ADS-B
Fri 07:15:32 AM 51.4943 -0.6097 90° East 158 182 1,900 -800 Descending FlightAware ADS-B

Login

Don't have an account? Register now (free) for customized features, flight alerts, and more!